Time,TemperatureF,DewpointF,PressureIn,WindDirection,WindDirectionDegrees,WindSpeedMPH,WindSpeedGustMPH,Humidity,HourlyPrecipIn,Conditions,Clouds,dailyrainin,SoftwareType,DateUTC
2013-06-22 00:09:00,64.8,64.2,30.01,SSW,202,0.0,-999.0,98,-99.99,,,0.00,Acu-Link.com,2013-06-22 04:09:00,
2013-06-22 00:24:00,64.4,63.8,30.01,SSW,202,0.0,-999.0,98,-99.99,,,0.00,Acu-Link.com,2013-06-22 04:24:00,
2013-06-22 00:39:00,64.2,63.6,30.00,SSW,202,0.0,-999.0,98,-99.99,,,0.00,Acu-Link.com,2013-06-22 04:39:00,
2013-06-22 00:54:00,63.7,63.1,30.00,SW,225,0.0,-999.0,98,-99.99,,,0.00,Acu-Link.com,2013-06-22 04:54:00,
2013-06-22 01:10:00,63.1,62.5,30.00,SW,225,0.0,-999.0,98,-99.99,,,0.00,Acu-Link.com,2013-06-22 05:10:00,
2013-06-22 01:25:00,62.8,62.2,29.99,SSW,202,0.0,-999.0,98,-99.99,,,0.00,Acu-Link.com,2013-06-22 05:25:00,
2013-06-22 01:40:00,62.4,61.8,29.98,SSW,202,0.0,-999.0,98,-99.99,,,0.00,Acu-Link.com,2013-06-22 05:40:00,
2013-06-22 01:56:00,62.1,61.5,29.98,West,270,0.0,-999.0,98,-99.99,,,0.00,Acu-Link.com,2013-06-22 05:56:00,
2013-06-22 02:11:00,61.5,60.9,29.99,NNW,337,0.0,-999.0,98,-99.99,,,0.00,Acu-Link.com,2013-06-22 06:11:00,
2013-06-22 02:26:00,61.3,60.7,29.99,NNW,337,0.0,-999.0,98,-99.99,,,0.00,Acu-Link.com,2013-06-22 06:26:00,
2013-06-22 02:42:00,61.0,60.4,29.99,NNW,337,0.0,-999.0,98,-99.99,,,0.00,Acu-Link.com,2013-06-22 06:42:00,
2013-06-22 02:57:00,60.6,60.0,29.98,NNW,337,0.0,-999.0,98,-99.99,,,0.00,Acu-Link.com,2013-06-22 06:57:00,
2013-06-22 03:12:00,60.3,59.7,29.98,NNW,337,0.0,-999.0,98,-99.99,,,0.00,Acu-Link.com,2013-06-22 07:12:00,
2013-06-22 03:27:00,60.1,59.5,29.98,NNW,337,0.0,-999.0,98,-99.99,,,0.00,Acu-Link.com,2013-06-22 07:27:00,
2013-06-22 03:42:00,59.9,59.3,29.97,SSW,202,0.0,-999.0,98,-99.99,,,0.00,Acu-Link.com,2013-06-22 07:42:00,
2013-06-22 03:58:00,59.7,59.1,29.98,SSW,202,0.0,-999.0,98,-99.99,,,0.00,Acu-Link.com,2013-06-22 07:58:00,
2013-06-22 04:13:00,59.7,59.1,29.98,SW,225,0.0,-999.0,98,-99.99,,,0.00,Acu-Link.com,2013-06-22 08:13:00,
2013-06-22 04:29:00,59.7,59.1,29.99,SW,225,0.0,-999.0,98,-99.99,,,0.00,Acu-Link.com,2013-06-22 08:29:00,
2013-06-22 04:44:00,59.7,59.1,29.99,SSW,202,0.0,-999.0,98,-99.99,,,0.00,Acu-Link.com,2013-06-22 08:44:00,
2013-06-22 04:59:00,59.9,59.3,29.99,East,90,0.0,-999.0,98,-99.99,,,0.00,Acu-Link.com,2013-06-22 08:59:00,
2013-06-22 05:15:00,59.9,59.3,29.99,ESE,112,0.0,-999.0,98,-99.99,,,0.00,Acu-Link.com,2013-06-22 09:15:00,
2013-06-22 05:30:00,59.5,58.9,29.99,ESE,112,0.0,-999.0,98,-99.99,,,0.00,Acu-Link.com,2013-06-22 09:30:00,
2013-06-22 05:45:00,59.2,58.6,30.00,SSW,202,0.0,-999.0,98,-99.99,,,0.00,Acu-Link.com,2013-06-22 09:45:00,
2013-06-22 06:00:00,59.0,58.4,30.00,South,180,0.0,-999.0,98,-99.99,,,0.00,Acu-Link.com,2013-06-22 10:00:00,
2013-06-22 06:15:00,58.5,57.9,30.00,SSE,157,0.0,-999.0,98,-99.99,,,0.00,Acu-Link.com,2013-06-22 10:15:00,
2013-06-22 06:30:00,58.3,57.7,30.00,SE,135,0.0,-999.0,98,-99.99,,,0.00,Acu-Link.com,2013-06-22 10:30:00,
2013-06-22 06:46:00,58.3,57.7,30.01,SW,225,0.0,-999.0,98,-99.99,,,0.00,Acu-Link.com,2013-06-22 10:46:00,
2013-06-22 07:01:00,58.5,57.9,30.01,SE,135,0.0,-999.0,98,-99.99,,,0.00,Acu-Link.com,2013-06-22 11:01:00,
2013-06-22 07:16:00,59.2,58.6,30.01,West,270,0.0,-999.0,98,-99.99,,,0.00,Acu-Link.com,2013-06-22 11:16:00,
2013-06-22 07:32:00,60.1,59.5,30.01,SW,225,0.0,-999.0,98,-99.99,,,0.00,Acu-Link.com,2013-06-22 11:32:00,
2013-06-22 07:47:00,61.0,60.4,30.01,West,270,0.0,-999.0,98,-99.99,,,0.00,Acu-Link.com,2013-06-22 11:47:00,
2013-06-22 08:02:00,61.9,61.3,30.01,WNW,292,0.0,-999.0,98,-99.99,,,0.00,Acu-Link.com,2013-06-22 12:02:00,
2013-06-22 08:18:00,63.9,63.3,30.01,NNE,22,0.0,-999.0,98,-99.99,,,0.00,Acu-Link.com,2013-06-22 12:18:00,
2013-06-22 08:33:00,66.0,65.4,30.01,NW,315,0.0,-999.0,98,-99.99,,,0.00,Acu-Link.com,2013-06-22 12:33:00,
2013-06-22 08:48:00,67.5,66.9,30.01,WNW,292,1.7,-999.0,98,-99.99,,,0.00,Acu-Link.com,2013-06-22 12:48:00,
2013-06-22 09:03:00,68.9,68.3,30.01,West,270,0.0,-999.0,98,-99.99,,,0.00,Acu-Link.com,2013-06-22 13:03:00,
2013-06-22 09:19:00,70.7,70.1,30.01,ENE,67,0.0,-999.0,98,-99.99,,,0.00,Acu-Link.com,2013-06-22 13:19:00,
2013-06-22 09:34:00,72.0,71.4,30.00,WNW,292,0.0,-999.0,98,-99.99,,,0.00,Acu-Link.com,2013-06-22 13:34:00,
2013-06-22 09:49:00,73.4,72.8,30.01,SSW,202,1.1,-999.0,98,-99.99,,,0.00,Acu-Link.com,2013-06-22 13:49:00,
2013-06-22 10:05:00,73.9,73.3,30.01,NNW,337,1.1,-999.0,98,-99.99,,,0.00,Acu-Link.com,2013-06-22 14:05:00,
2013-06-22 10:20:00,75.4,74.8,30.00,NE,45,3.2,-999.0,98,-99.99,,,0.00,Acu-Link.com,2013-06-22 14:20:00,
2013-06-22 10:35:00,76.6,76.0,30.00,WNW,292,1.7,-999.0,98,-99.99,,,0.00,Acu-Link.com,2013-06-22 14:35:00,
2013-06-22 10:51:00,78.1,77.5,30.00,SW,225,0.0,-999.0,98,-99.99,,,0.00,Acu-Link.com,2013-06-22 14:51:00,
2013-06-22 11:06:00,80.4,79.8,29.99,West,270,0.0,-999.0,98,-99.99,,,0.00,Acu-Link.com,2013-06-22 15:06:00,
2013-06-22 11:21:00,85.5,84.9,29.99,ESE,112,1.1,-999.0,98,-99.99,,,0.00,Acu-Link.com,2013-06-22 15:21:00,
2013-06-22 11:36:00,79.0,78.4,30.00,NW,315,0.0,-999.0,98,-99.99,,,0.00,Acu-Link.com,2013-06-22 15:36:00,
2013-06-22 11:51:00,79.9,79.3,30.00,SE,135,1.7,-999.0,98,-99.99,,,0.00,Acu-Link.com,2013-06-22 15:51:00,
2013-06-22 12:07:00,81.9,81.3,30.00,WNW,292,1.7,-999.0,98,-99.99,,,0.00,Acu-Link.com,2013-06-22 16:07:00,
2013-06-22 12:22:00,81.1,80.5,30.00,WNW,292,1.7,-999.0,98,-99.99,,,0.00,Acu-Link.com,2013-06-22 16:22:00,
2013-06-22 12:37:00,80.8,80.2,29.99,South,180,1.7,-999.0,98,-99.99,,,0.00,Acu-Link.com,2013-06-22 16:37:00,
2013-06-22 12:53:00,81.7,81.1,29.99,South,180,0.0,-999.0,98,-99.99,,,0.00,Acu-Link.com,2013-06-22 16:53:00,
2013-06-22 13:08:00,83.5,82.9,29.99,SSW,202,0.0,-999.0,98,-99.99,,,0.00,Acu-Link.com,2013-06-22 17:08:00,
2013-06-22 13:23:00,83.7,83.1,29.97,ESE,112,2.7,-999.0,98,-99.99,,,0.00,Acu-Link.com,2013-06-22 17:23:00,
2013-06-22 13:38:00,83.8,83.2,29.96,SSW,202,1.1,-999.0,98,-99.99,,,0.00,Acu-Link.com,2013-06-22 17:38:00,
2013-06-22 13:53:00,83.7,83.1,29.97,SW,225,1.7,-999.0,98,-99.99,,,0.00,Acu-Link.com,2013-06-22 17:53:00,
2013-06-22 14:09:00,83.3,82.7,29.96,WSW,247,1.7,-999.0,98,-99.99,,,0.00,Acu-Link.com,2013-06-22 18:09:00,
2013-06-22 14:24:00,84.4,83.8,29.95,SSE,157,0.0,-999.0,98,-99.99,,,0.00,Acu-Link.com,2013-06-22 18:24:00,
2013-06-22 14:39:00,83.3,82.7,29.96,ESE,112,2.7,-999.0,98,-99.99,,,0.00,Acu-Link.com,2013-06-22 18:39:00,
2013-06-22 14:54:00,82.9,82.3,29.93,WNW,292,0.0,-999.0,98,-99.99,,,0.00,Acu-Link.com,2013-06-22 18:54:00,
2013-06-22 15:09:00,84.2,83.6,29.94,North,0,1.7,-999.0,98,-99.99,,,0.00,Acu-Link.com,2013-06-22 19:09:00,
2013-06-22 15:24:00,85.6,85.0,29.92,WSW,247,3.2,-999.0,98,-99.99,,,0.00,Acu-Link.com,2013-06-22 19:24:00,
2013-06-22 15:40:00,86.0,85.4,29.92,NNW,337,1.7,-999.0,98,-99.99,,,0.00,Acu-Link.com,2013-06-22 19:40:00,
2013-06-22 15:55:00,86.0,85.4,29.91,SSW,202,1.1,-999.0,98,-99.99,,,0.00,Acu-Link.com,2013-06-22 19:55:00,
2013-06-22 16:10:00,85.8,85.2,29.90,WNW,292,2.7,-999.0,98,-99.99,,,0.00,Acu-Link.com,2013-06-22 20:10:00,
2013-06-22 16:26:00,85.3,84.7,29.90,ESE,112,4.2,-999.0,98,-99.99,,,0.00,Acu-Link.com,2013-06-22 20:26:00,
2013-06-22 16:41:00,84.9,84.3,29.89,NNE,22,2.2,-999.0,98,-99.99,,,0.00,Acu-Link.com,2013-06-22 20:41:00,
2013-06-22 16:56:00,84.9,84.3,29.88,NNE,22,3.2,-999.0,98,-99.99,,,0.00,Acu-Link.com,2013-06-22 20:56:00,
2013-06-22 17:12:00,83.8,83.2,29.87,SSW,202,0.0,-999.0,98,-99.99,,,0.00,Acu-Link.com,2013-06-22 21:12:00,
2013-06-22 17:27:00,84.0,83.4,29.87,NNW,337,1.7,-999.0,98,-99.99,,,0.00,Acu-Link.com,2013-06-22 21:27:00,
2013-06-22 17:42:00,84.2,83.6,29.85,North,0,1.7,-999.0,98,-99.99,,,0.00,Acu-Link.com,2013-06-22 21:42:00,
2013-06-22 17:57:00,82.8,82.2,29.86,NE,45,3.7,-999.0,98,-99.99,,,0.00,Acu-Link.com,2013-06-22 21:57:00,
2013-06-22 18:12:00,82.8,82.2,29.85,SSW,202,0.0,-999.0,98,-99.99,,,0.00,Acu-Link.com,2013-06-22 22:12:00,
2013-06-22 18:28:00,82.6,82.0,29.85,West,270,1.7,-999.0,98,-99.99,,,0.00,Acu-Link.com,2013-06-22 22:28:00,
2013-06-22 18:43:00,83.1,82.5,29.86,NNW,337,0.0,-999.0,98,-99.99,,,0.00,Acu-Link.com,2013-06-22 22:43:00,
2013-06-22 18:58:00,82.8,82.2,29.87,NNW,337,1.1,-999.0,98,-99.99,,,0.00,Acu-Link.com,2013-06-22 22:58:00,
2013-06-22 19:14:00,82.9,82.3,29.87,West,270,0.0,-999.0,98,-99.99,,,0.00,Acu-Link.com,2013-06-22 23:14:00,
2013-06-22 19:29:00,82.0,81.4,29.87,SSW,202,0.0,-999.0,98,-99.99,,,0.00,Acu-Link.com,2013-06-22 23:29:00,
2013-06-22 19:44:00,81.0,80.4,29.87,NNE,22,0.0,-999.0,98,-99.99,,,0.00,Acu-Link.com,2013-06-22 23:44:00,
2013-06-22 20:00:00,80.4,79.8,29.87,West,270,0.0,-999.0,98,-99.99,,,0.00,Acu-Link.com,2013-06-23 00:00:00,
2013-06-22 20:15:00,79.3,78.7,29.87,SW,225,0.0,-999.0,98,-99.99,,,0.00,Acu-Link.com,2013-06-23 00:15:00,
2013-06-22 20:30:00,77.7,77.1,29.87,SE,135,0.0,-999.0,98,-99.99,,,0.00,Acu-Link.com,2013-06-23 00:30:00,
2013-06-22 20:45:00,76.6,76.0,29.87,North,0,0.0,-999.0,98,-99.99,,,0.00,Acu-Link.com,2013-06-23 00:45:00,
2013-06-22 21:01:00,75.4,74.8,29.87,ESE,112,0.0,-999.0,98,-99.99,,,0.00,Acu-Link.com,2013-06-23 01:01:00,
2013-06-22 21:16:00,74.5,73.9,29.88,ESE,112,0.0,-999.0,98,-99.99,,,0.00,Acu-Link.com,2013-06-23 01:16:00,
2013-06-22 21:31:00,73.8,73.2,29.90,West,270,0.0,-999.0,98,-99.99,,,0.00,Acu-Link.com,2013-06-23 01:31:00,
2013-06-22 21:47:00,73.2,72.6,29.89,SSW,202,0.0,-999.0,98,-99.99,,,0.00,Acu-Link.com,2013-06-23 01:47:00,
2013-06-22 22:02:00,72.5,71.9,29.90,NE,45,0.0,-999.0,98,-99.99,,,0.00,Acu-Link.com,2013-06-23 02:02:00,
2013-06-22 22:17:00,72.0,71.4,29.91,NW,315,1.1,-999.0,98,-99.99,,,0.00,Acu-Link.com,2013-06-23 02:17:00,
2013-06-22 22:32:00,71.8,71.2,29.91,WNW,292,0.0,-999.0,98,-99.99,,,0.00,Acu-Link.com,2013-06-23 02:32:00,
2013-06-22 22:48:00,71.6,71.0,29.91,NNE,22,0.0,-999.0,98,-99.99,,,0.00,Acu-Link.com,2013-06-23 02:48:00,
2013-06-22 23:03:00,71.4,70.8,29.93,West,270,0.0,-999.0,98,-99.99,,,0.00,Acu-Link.com,2013-06-23 03:03:00,
2013-06-22 23:18:00,71.1,70.5,29.92,SSE,157,0.0,-999.0,98,-99.99,,,0.00,Acu-Link.com,2013-06-23 03:18:00,
2013-06-22 23:33:00,71.1,70.5,29.93,West,270,0.0,-999.0,98,-99.99,,,0.00,Acu-Link.com,2013-06-23 03:33:00,
2013-06-22 23:49:00,70.7,70.1,29.93,SW,225,0.0,-999.0,98,-99.99,,,0.00,Acu-Link.com,2013-06-23 03:49:00,